Motte Rimrock Reserve, California Weather observations

Data are for 10 minute period ending at time listed.
 Day   Time   Solar   Ave.   Ave.  Ave.  Vector  Max.   Baro.   Total    
  of    of     Rad.   Air    Rel.  Wind   Wind   Wind  Press.  Precip.   
Year   Day            Temp.  Hum.  Speed  Dir.   Gust                    
2015   (PST)  Kw/m2    F      %     mph   deg.    mph    mb.     in.     
-------------------------------------------------------------------------
  58   20:40   0.00   52.6    81    9.7   193    13.2   939.8    0.00 
  58   20:50   0.00   52.4    81   10.2   198    13.0   939.8    0.00 
  58   21:00   0.00   52.3    80   10.9   198    14.8   940.0    0.00 
  58   21:10   0.00   52.3    79    9.7   206    13.1   940.0    0.00 
  58   21:20   0.00   52.3    79    9.1   203    13.4   940.1    0.00 
  58   21:30   0.00   52.3    79   10.0   209    13.2   940.1    0.00 
  58   21:40   0.00   52.2    79    8.8   202    12.8   940.1    0.00 
  58   21:50   0.00   52.0    80    8.7   204    12.9   940.1    0.00 
  58   22:00   0.00   51.9    80    8.2   210    12.8   940.1    0.00 
  58   22:10   0.00   51.9    80    8.7   208    13.7   940.1    0.00 
  58   22:20   0.00   51.8    81    6.6   199     9.4   940.1    0.00 
  58   22:30   0.00   51.5    82    6.0   186     7.7   940.1    0.00 
  58   22:40   0.00   51.4    83    7.7   175    10.2   940.1    0.00 
  58   22:50   0.00   51.3    83    6.5   193     8.3   940.1    0.00 
  58   23:00   0.00   51.3    82    6.3   215     9.3   940.0    0.00 
  58   23:10   0.00   50.9    83    6.1   218     8.9   939.9    0.00 
  58   23:20   0.00   50.3    84    6.4   221     9.1   939.8    0.00 
  58   23:30   0.00   49.7    86    6.1   207     8.3   939.8    0.00 
  58   23:40   0.00   49.3    86    7.5   211    10.9   939.8    0.00 
  58   23:50   0.00   48.9    88    8.0   208    10.7   939.8    0.00 
  59    0:00   0.00   49.0    89    7.6   213    10.4   939.8    0.00 
  59    0:10   0.00   49.0    90    7.8   203    11.4   939.8    0.00 
  59    0:20   0.00   49.2    91    8.2   195    11.3   939.9    0.00 
  59    0:30   0.00   49.1    91    7.7   186    10.6   939.9    0.00 
  59    0:40   0.00   49.1    90    8.1   171    10.8   939.9    0.00 
  59    0:50   0.00   49.2    90    7.3   175    10.5   939.9    0.00 
  59    1:00   0.00   49.5    90    7.0   185     9.9   939.9    0.00 
  59    1:10   0.00   49.4    90    9.4   187    13.0   939.9    0.00 
  59    1:20   0.00   49.0    91    7.8   189    10.7   940.0    0.00 
  59    1:30   0.00   48.7    91    7.9   186    10.9   939.9    0.00 
  59    1:40   0.00   48.4    92    8.1   189    11.0   939.9    0.00 
  59    1:50   0.00   48.4    91    7.7   188    10.5   939.9    0.00 
  59    2:00   0.00   48.3    91    7.8   195    10.1   939.9    0.00 
  59    2:10   0.00   48.2    90    6.8   197     9.1   939.9    0.00 
  59    2:20   0.00   47.9    91    6.5   208     8.3   939.9    0.00 
  59    2:30   0.00   47.8    90    6.4   215     9.1   939.8    0.00 
  59    2:40   0.00   48.2    88    7.6   214     9.6   939.7    0.00 
  59    2:50   0.00   48.1    87    5.4   228     7.6   939.7    0.00 
  59    3:00   0.00   47.8    87    5.6   297     8.3   939.7    0.00 
  59    3:10   0.00   48.8    84    5.0   238     9.4   939.6    0.00 
  59    3:20   0.00   48.8    84    6.9   221    11.8   939.6    0.00 
  59    3:30   0.00   48.7    84    8.0   222    10.9   939.7    0.00 
  59    3:40   0.00   48.2    86    6.7   220     9.2   939.7    0.00 
  59    3:50   0.00   47.5    89    5.3   230     7.2   939.7    0.00 
  59    4:00   0.00   47.2    89    3.7   230     4.7   939.6    0.00 
  59    4:10   0.00   47.0    88    5.0   194     6.9   939.6    0.00 
  59    4:20   0.00   47.2    88    4.3   199     6.2   939.8    0.00 
  59    4:30   0.00   46.8    88    5.0   220     7.2   939.9    0.00 
  59    4:40   0.00   46.5    89    5.1   222     8.3   939.9    0.00 
  59    4:50   0.00   46.6    89    6.2   225     8.4   940.0    0.00 
  59    5:00   0.00   46.2    90    6.6   207     8.3   939.9    0.00 
  59    5:10   0.00   46.0    90    6.0   204     8.0   940.0    0.00 
  59    5:20   0.00   45.6    90    4.7   219     7.2   940.1    0.00 
  59    5:30   0.00   45.4    90    5.4   229     8.0   940.2    0.00 
  59    5:40   0.00   45.2    89    6.7   233    10.7   940.3    0.00 
  59    5:50   0.00   45.8    84    7.6   233    11.8   940.3    0.00 
  59    6:00   0.00   45.2    85    5.7   223     7.7   940.4    0.00 
  59    6:10   0.00   44.7    86    5.6   218     7.5   940.5    0.00 
  59    6:20   0.00   44.6    85    6.4   211    10.7   940.6    0.00 
  59    6:30   0.00   44.7    84    7.9   198    10.3   940.7    0.00 
  59    6:40   0.01   44.8    84    6.6   191     8.8   940.7    0.00 
  59    6:50   0.04   45.0    86    9.7   194    12.5   940.7    0.00 
  59    7:00   0.07   46.0    84    9.5   190    12.2   940.8    0.00 
  59    7:10   0.11   46.6    83    8.2   182    11.2   940.9    0.00 
  59    7:20   0.10   46.9    82    7.6   186    10.4   941.0    0.00 
  59    7:30   0.17   47.9    80    8.0   186    10.6   941.2    0.00 
  59    7:40   0.20   48.7    78    8.4   188    12.8   941.3    0.00 
  59    7:50   0.11   47.9    79   11.5   192    16.4   941.6    0.00 
  59    8:00   0.27   48.7    77    9.2   196    13.4   941.8    0.00 
  59    8:10   0.29   49.6    73    7.6   195    11.2   941.9    0.00 
  59    8:20   0.29   50.2    69    8.2   205    12.4   942.0    0.00 
  59    8:30   0.42   50.9    67    8.4   212    13.2   942.1    0.00 
  59    8:40   0.48   51.8    65    6.8   202    11.1   942.4    0.00 
  59    8:50   0.48   52.7    63    7.2   208    13.5   942.5    0.00 
  59    9:00   0.32   52.2    62    9.9   212    16.9   942.7    0.00 
  59    9:10   0.35   52.4    59   10.6   205    16.1   942.7    0.00 
  59    9:20   0.48   53.4    57    9.6   216    15.1   942.7    0.00 
  59    9:30   0.68   54.4    54   10.3   219    17.5   942.7    0.00 
  59    9:40   0.80   54.5    58   10.6   196    14.3   942.9    0.00 
  59    9:50   0.47   54.1    58   10.2   193    15.3   943.1    0.00 
  59   10:00   0.29   52.8    63   10.9   190    15.9   943.3    0.00 
  59   10:10   0.16   52.2    63    9.0   195    14.2   943.3    0.00 
  59   10:20   0.17   51.5    66    9.5   221    13.2   943.3    0.00 
  59   10:30   0.17   51.0    75    6.9   233    10.1   943.3    0.00 
  59   10:40   0.17   50.9    75    6.1   231    10.7   943.3    0.00 
  59   10:50   0.35   51.5    76    6.6   208    12.7   943.1    0.00 
  59   11:00   0.36   52.5    70    9.7   192    15.1   943.0    0.00 
  59   11:10   0.30   52.8    67    9.9   206    16.1   943.1    0.00 
  59   11:20   0.27   53.4    66    8.1   220    12.7   943.2    0.00 
  59   11:30   0.39   51.7    70   13.6   267    18.9   943.2    0.00 
  59   11:40   0.56   52.5    68    8.7   271    13.1   943.1    0.00 
  59   11:50   0.49   53.5    64    7.1   259     9.9   943.1    0.00 
  59   12:00   0.32   53.7    64    4.9   222     9.2   943.1    0.00 
  59   12:10   0.29   53.0    64   11.2   189    16.7   943.1    0.00 
  59   12:20   0.49   53.7    64   10.4   194    16.0   943.0    0.00 
  59   12:30   0.36   54.0    62    9.6   191    14.8   943.0    0.00 
  59   12:40   0.47   54.5    58    9.2   214    14.6   943.0    0.00 
  59   12:50   0.39   55.6    57    6.9   209    10.7   942.9    0.00 
  59   13:00   0.45   55.7    51    8.6   238    13.7   942.9    0.00 
  59   13:10   0.38   55.8    50    9.2   230    13.4   942.8    0.00 
  59   13:20   0.34   55.2    52   10.3   189    15.9   942.7    0.00 
  59   13:30   0.40   55.8    53   12.8   216    20.2   942.6    0.00 
  59   13:40   0.36   55.2    55   12.5   206    17.4   942.6    0.00 
  59   13:50   0.29   54.6    57   13.0   200    18.2   942.5    0.00 
  59   14:00   0.32   55.0    57   10.0   208    16.5   942.5    0.00 
  59   14:10   0.25   54.9    55    7.4   210    11.5   942.4    0.00 
  59   14:20   0.17   54.6    55    7.4   187    12.3   942.3    0.00 
  59   14:30   0.15   54.5    54    8.7   189    13.6   942.2    0.00 
  59   14:40   0.23   55.2    54   10.4   202    15.1   942.2    0.00 
  59   14:50   0.23   55.2    52   10.4   192    15.5   942.2    0.00 
  59   15:00   0.14   54.8    53   11.7   212    17.1   942.2    0.00 
  59   15:10   0.13   54.3    53   11.0   215    14.8   942.3    0.00 
  59   15:20   0.35   54.3    57    8.1   240    12.3   942.3    0.00 
  59   15:30   0.20   54.5    55    3.1   271     8.0   942.4    0.00 
  59   15:40   0.22   54.2    56   10.2   228    16.2   942.3    0.00 
  59   15:50   0.34   55.7    53   11.1   208    15.3   942.3    0.00 
  59   16:00   0.28   54.7    55   10.7   213    14.0   942.4    0.00 
  59   16:10   0.20   54.9    53   11.3   208    17.2   942.4    0.00 
  59   16:20   0.12   53.9    56   12.2   204    17.8   942.4    0.00 
  59   16:30   0.11   53.4    57   11.6   191    16.7   942.4    0.00 
  59   16:40   0.14   53.5    56   11.9   197    16.0   942.4    0.00 
  59   16:50   0.15   53.5    56   11.8   207    16.1   942.4    0.00 
  59   17:00   0.13   52.8    58   11.5   213    15.5   942.5    0.00 
  59   17:10   0.10   53.0    55   10.3   213    14.0   942.6    0.00 
  59   17:20   0.05   52.3    56   10.2   217    15.0   942.6    0.00 
  59   17:30   0.03   51.2    59   11.7   215    15.1   942.7    0.00 
  59   17:40   0.01   50.6    64    9.8   210    13.4   942.6    0.00 
  59   17:50   0.00   50.3    66    7.6   203    11.5   942.6    0.00 
  59   18:00   0.00   49.7    67    6.6   207    10.4   942.6    0.00 
  59   18:10   0.00   49.2    69    6.8   200    10.1   942.6    0.00 
  59   18:20   0.00   48.9    71    7.1   200     8.9   942.7    0.00 
  59   18:30   0.00   48.8    73    6.7   199    10.0   942.7    0.00 
  59   18:40   0.00   48.6    74    5.5   196     8.8   942.7    0.00 
  59   18:50   0.00   48.4    75    5.7   205     8.0   942.8    0.00 
  59   19:00   0.00   48.0    76    6.7   194     9.2   942.9    0.00 
  59   19:10   0.00   48.0    77    6.5   201     9.3   942.9    0.00 
  59   19:20   0.00   48.0    78    6.7   192     9.2   943.0    0.00 
  59   19:30   0.00   48.1    78    8.3   172    13.6   943.0    0.00 
  59   19:40   0.00   48.1    81    8.3   182    12.3   943.2    0.00 
  59   19:50   0.00   48.0    82    8.6   189    12.5   943.2    0.00 
  59   20:00   0.00   48.0    82    7.3   183     9.5   943.3    0.00 
  59   20:10   0.00   48.0    82    7.4   190    12.8   943.4    0.00 
  59   20:20   0.00   48.0    82    6.0   204     8.9   943.4    0.00 
  59   20:30   0.00   47.9    82    5.4   172     7.5   943.5    0.00 

Return to Motte Rimrock Reserve graphs page.


Western Regional Climate Center,wrcc@dri.edu